Proserpine, Queensland

5:58 PM AEST on February 08, 2016 (GMT +1000)
Proserpine Mill | | Change Station
CLOSE
Current Station
Personal Weather Station
Location: Proserpine, Queensland
Elevation: 43 ft
Nearby Weather Stations

Elev 43 ft 20.40 °S, 148.58 °E | Updated 2 minutes ago

Overcast
Overcast
80.4 °F
Feels Like 86 °F
N
10.0
Wind Variable Wind from South
Gusts 16.0 mph

Today
High -- | Low -- °F
--% Chance of Precip.
Yesterday
High -- | Low -- °F
Precip. -- in
Pressure 29.80 in
Visibility 6.2 miles
Clouds Scattered Clouds 1900 ft
Mostly Cloudy 2500 ft
Overcast 9400 ft
Heat Index 86 °F
Dew Point 76 °F
Humidity 86%
Rainfall 0.00 in
Snow Depth Not available.
5:52 AM 6:46 PM
Waning Crescent, 0% visible
SPECI YBHM 080744Z AUTO 13020KT 9999 // SCT019 BKN025 OVC094 27/24 Q1009
Pressure 29.80 in
Visibility 6.2 miles
Clouds Scattered Clouds 1900 ft
Mostly Cloudy 2500 ft
Overcast 9400 ft
Heat Index 86 °F
Dew Point 76 °F
Humidity 86%
Rainfall 0.00 in
Snow Depth Not available.
5:52 AM 6:46 PM
Waning Crescent, 0% visible
SPECI YBHM 080744Z AUTO 13020KT 9999 // SCT019 BKN025 OVC094 27/24 Q1009

10-Day Weather Forecast

Almanac

Astronomy

Feb. 08, 2016 Rise Set
Actual Time
Civil Twilight
Nautical Twilight
Astronomical Twilight
Moon
Length of Visible Light
Length of Day
Tomorrow will be .
, % of the Moon is Illuminated

Today's Extremes

Country Highs Country Lows

Community

WunderPhotos

Upload Photos

1,891,394 photos uploaded!

WunderBlog® & News

Nearby

Air Quality

  Air Quality AQ Index Pollutant
Not available.

Snow Depth

Station Depth Elevation

Earthquake Activity

City Distance Mag. Time & Date
Minimum magnitude displayed is 2.5.

Coastal Water Temperatures

Place Temperature

Stations

Nearby Weather Stations

Station Location Temp. Windchill Dew Point Humidity Wind Precip. Elev Updated Type